Time;durP1;ratioP1;P1;durP2;ratioP2;P2;SDS_P1;SDS_P2;PMS_P1;PMS_P2;Temp;Humidity;BMP_temperature;BMP_pressure;BME280_temperature;BME280_humidity;BME280_pressure;Samples;Min_cycle;Max_cycle;Signal;HPM_P1;HPM_P2
2022/04/17 00:01:43;;;;;;;;;;;11.30;63.80;;;;;;5016635;28;20318;-88
2022/04/17 00:04:10;;;;;;;;;;;11.30;63.90;;;;;;5016629;28;19916;-89
2022/04/17 00:06:37;;;;;;;;;;;11.30;63.90;;;;;;5016538;28;20005;-88
2022/04/17 00:09:02;;;;;;;;;;;11.30;63.90;;;;;;5016259;28;19972;-88
2022/04/17 00:11:28;;;;;;;;;;;11.20;63.50;;;;;;5016447;28;19951;-88
2022/04/17 00:13:55;;;;;;;;;;;11.20;64.00;;;;;;5016422;28;20275;-88
2022/04/17 00:16:20;;;;;;;;;;;11.10;63.80;;;;;;5016349;28;19910;-88
2022/04/17 00:18:46;;;;;;;;;;;11.10;63.90;;;;;;5016341;28;19910;-88
2022/04/17 00:21:12;;;;;;;;;;;11.10;64.30;;;;;;5016294;28;20287;-88
2022/04/17 00:23:38;;;;;;;;;;;11.10;63.90;;;;;;5016219;28;19917;-89
2022/04/17 00:26:03;;;;;;;;;;;11.10;63.80;;;;;;5018219;28;19916;-88
2022/04/17 00:28:29;;;;;;;;;;;11.00;63.30;;;;;;5035558;28;19917;-89
2022/04/17 00:30:55;;;;;;;;;;;11.10;63.20;;;;;;5035828;28;19958;-88
2022/04/17 00:33:20;;;;;;;;;;;11.00;63.30;;;;;;5035787;28;19913;-88
2022/04/17 00:35:46;;;;;;;;;;;10.90;63.50;;;;;;5036047;28;20359;-88
2022/04/17 00:38:11;;;;;;;;;;;10.90;63.00;;;;;;5034553;28;20271;-88
2022/04/17 00:40:37;;;;;;;;;;;10.80;63.80;;;;;;5035723;28;19962;-89
2022/04/17 00:43:17;;;;;;;;;;;10.80;64.30;;;;;;5035648;28;19909;-88
2022/04/17 00:45:42;;;;;;;;;;;10.80;64.10;;;;;;5035663;28;19964;-88
2022/04/17 00:48:08;;;;;;;;;;;10.90;63.90;;;;;;5035528;28;19964;-89
2022/04/17 00:50:34;;;;;;;;;;;10.90;63.60;;;;;;5035528;28;20007;-88
2022/04/17 00:53:00;;;;;;;;;;;10.90;63.30;;;;;;5035466;28;19910;-88
2022/04/17 00:55:26;;;;;;;;;;;10.90;64.00;;;;;;5035471;28;19975;-88
2022/04/17 00:57:51;;;;;;;;;;;10.80;64.10;;;;;;5015991;28;20291;-89
2022/04/17 01:00:19;;;;;;;;;;;10.70;64.30;;;;;;5015578;28;20021;-89
2022/04/17 01:02:44;;;;;;;;;;;10.60;64.60;;;;;;5015497;28;19941;-88
2022/04/17 01:05:10;;;;;;;;;;;10.50;65.40;;;;;;5015502;28;19917;-89
2022/04/17 01:07:36;;;;;;;;;;;10.50;64.80;;;;;;5015181;28;20008;-88
2022/04/17 01:10:03;;;;;;;;;;;10.40;65.30;;;;;;5015336;28;19917;-88
2022/04/17 01:12:29;;;;;;;;;;;10.20;65.40;;;;;;5015348;28;19917;-89
2022/04/17 01:14:55;;;;;;;;;;;10.10;65.10;;;;;;5015347;28;19909;-88
2022/04/17 01:17:21;;;;;;;;;;;10.00;65.50;;;;;;5015223;28;19910;-88
2022/04/17 01:19:47;;;;;;;;;;;10.00;65.40;;;;;;5015158;28;19917;-89
2022/04/17 01:22:12;;;;;;;;;;;10.00;65.20;;;;;;5015166;28;19910;-88
2022/04/17 01:27:23;;;;;;;;;;;10.10;64.80;;;;;;5029761;28;19999;-89
2022/04/17 01:29:50;;;;;;;;;;;10.10;64.20;;;;;;5034722;28;19956;-89
2022/04/17 01:32:16;;;;;;;;;;;10.10;64.10;;;;;;5034891;28;19978;-88
2022/04/17 01:34:42;;;;;;;;;;;10.00;64.50;;;;;;5034724;28;20363;-89
2022/04/17 01:37:07;;;;;;;;;;;9.90;64.90;;;;;;5034866;28;19932;-89
2022/04/17 01:39:33;;;;;;;;;;;9.80;65.40;;;;;;5034615;28;20373;-89
2022/04/17 01:41:59;;;;;;;;;;;9.90;65.40;;;;;;5034545;28;20374;-89
2022/04/17 01:44:25;;;;;;;;;;;9.90;65.00;;;;;;5034518;28;19917;-89
2022/04/17 01:46:51;;;;;;;;;;;10.00;64.70;;;;;;5034441;28;19909;-88
2022/04/17 01:49:17;;;;;;;;;;;10.00;64.70;;;;;;5034387;28;19913;-88
2022/04/17 01:51:44;;;;;;;;;;;10.10;63.90;;;;;;5032704;28;20433;-88
2022/04/17 01:54:10;;;;;;;;;;;10.10;63.00;;;;;;5034613;28;19971;-88
2022/04/17 01:56:37;;;;;;;;;;;10.10;62.30;;;;;;5032988;28;19913;-89
2022/04/17 01:59:04;;;;;;;;;;;10.00;61.80;;;;;;5034307;28;19913;-88
2022/04/17 02:01:30;;;;;;;;;;;9.90;61.10;;;;;;5034220;28;20383;-89
2022/04/17 02:03:55;;;;;;;;;;;9.90;61.40;;;;;;5034128;28;19913;-88
2022/04/17 02:06:21;;;;;;;;;;;9.90;61.60;;;;;;5034097;28;19924;-88
2022/04/17 02:08:47;;;;;;;;;;;9.80;61.80;;;;;;5033796;28;19960;-89
2022/04/17 02:11:12;;;;;;;;;;;9.70;62.20;;;;;;5034066;28;19913;-88
2022/04/17 02:13:38;;;;;;;;;;;9.70;62.20;;;;;;5033311;28;20441;-89
2022/04/17 02:16:04;;;;;;;;;;;9.60;62.10;;;;;;5033970;28;19939;-88
2022/04/17 02:18:29;;;;;;;;;;;9.50;62.00;;;;;;5033883;28;19937;-88
2022/04/17 02:20:55;;;;;;;;;;;9.50;62.30;;;;;;5017419;28;19937;-88
2022/04/17 02:23:20;;;;;;;;;;;9.40;62.50;;;;;;5014064;28;20291;-88
2022/04/17 02:25:46;;;;;;;;;;;9.40;62.60;;;;;;5014058;28;19909;-88
2022/04/17 02:28:15;;;;;;;;;;;9.40;62.70;;;;;;5013901;28;20054;-88
2022/04/17 02:30:41;;;;;;;;;;;9.40;62.90;;;;;;5013896;28;20394;-88
2022/04/17 02:33:06;;;;;;;;;;;9.30;63.20;;;;;;5013786;28;19910;-89
2022/04/17 02:35:32;;;;;;;;;;;9.30;63.70;;;;;;5013934;28;19917;-88
2022/04/17 02:37:57;;;;;;;;;;;9.20;64.00;;;;;;5013840;28;19914;-88
2022/04/17 02:40:23;;;;;;;;;;;9.20;64.40;;;;;;5013786;28;19910;-88
2022/04/17 02:42:49;;;;;;;;;;;9.10;64.70;;;;;;5013745;28;19909;-88
2022/04/17 02:45:14;;;;;;;;;;;9.10;64.90;;;;;;5013770;28;20326;-88
2022/04/17 02:47:43;;;;;;;;;;;9.10;65.30;;;;;;5012419;28;19921;-89
2022/04/17 02:50:12;;;;;;;;;;;9.10;65.30;;;;;;5023016;28;19913;-88
2022/04/17 02:52:38;;;;;;;;;;;9.10;65.40;;;;;;5033324;28;19909;-89
2022/04/17 02:55:04;;;;;;;;;;;9.20;64.90;;;;;;5033287;28;19916;-88
2022/04/17 02:57:33;;;;;;;;;;;9.20;64.40;;;;;;5033114;28;20397;-88
2022/04/17 02:59:58;;;;;;;;;;;9.10;64.20;;;;;;5033194;28;20359;-89
2022/04/17 03:07:53;;;;;;;;;;;9.10;62.90;;;;;;5032995;28;20280;-89
2022/04/17 03:10:19;;;;;;;;;;;9.10;63.10;;;;;;5033262;28;19909;-88
2022/04/17 03:12:44;;;;;;;;;;;9.10;63.30;;;;;;5033049;28;19913;-88
2022/04/17 03:15:10;;;;;;;;;;;9.10;62.50;;;;;;5033071;28;19909;-88
2022/04/17 03:17:36;;;;;;;;;;;9.10;62.50;;;;;;5032981;28;19948;-88
2022/04/17 03:20:03;;;;;;;;;;;9.10;63.00;;;;;;5032744;28;19917;-88
2022/04/17 03:22:29;;;;;;;;;;;9.00;62.60;;;;;;5032667;28;19917;-89
2022/04/17 03:24:54;;;;;;;;;;;9.00;62.70;;;;;;5035003;28;19977;-88
2022/04/17 03:27:20;;;;;;;;;;;9.00;62.70;;;;;;5035700;28;19909;-88
2022/04/17 03:29:45;;;;;;;;;;;8.90;62.30;;;;;;5037231;28;19943;-88
2022/04/17 03:32:11;;;;;;;;;;;8.90;61.80;;;;;;5036848;28;20275;-88
2022/04/17 03:34:37;;;;;;;;;;;8.90;61.40;;;;;;5037177;28;20004;-88
2022/04/17 03:37:03;;;;;;;;;;;8.90;61.50;;;;;;5036847;28;19913;-88
2022/04/17 03:39:28;;;;;;;;;;;8.90;61.50;;;;;;5036862;28;19952;-88
2022/04/17 03:41:54;;;;;;;;;;;8.90;61.20;;;;;;5036803;28;19910;-88
2022/04/17 03:44:20;;;;;;;;;;;8.80;60.70;;;;;;5036708;28;19909;-88
2022/04/17 03:46:46;;;;;;;;;;;8.80;60.80;;;;;;5036715;28;19928;-88
2022/04/17 03:49:11;;;;;;;;;;;8.70;60.60;;;;;;5032425;28;19924;-89
2022/04/17 03:51:37;;;;;;;;;;;8.60;61.30;;;;;;5016852;28;20301;-88
2022/04/17 03:54:03;;;;;;;;;;;8.50;61.30;;;;;;5016808;28;20288;-88
2022/04/17 03:56:28;;;;;;;;;;;8.40;61.70;;;;;;5016725;28;20380;-89
2022/04/17 03:58:54;;;;;;;;;;;8.40;61.60;;;;;;5016675;28;19913;-87
2022/04/17 04:01:19;;;;;;;;;;;8.40;60.80;;;;;;5016628;28;20413;-88
2022/04/17 04:03:46;;;;;;;;;;;8.50;60.30;;;;;;5016637;28;19960;-89
2022/04/17 04:06:11;;;;;;;;;;;8.50;60.10;;;;;;5016600;28;19910;-88
2022/04/17 04:08:37;;;;;;;;;;;8.40;60.60;;;;;;5016210;28;19928;-88
2022/04/17 04:11:02;;;;;;;;;;;8.40;60.50;;;;;;5016555;28;19932;-88
2022/04/17 04:13:28;;;;;;;;;;;8.50;61.20;;;;;;5016423;28;19996;-88
2022/04/17 04:15:55;;;;;;;;;;;8.40;61.90;;;;;;5016404;28;19917;-89
2022/04/17 04:18:21;;;;;;;;;;;8.30;62.30;;;;;;5023970;28;19920;-88
2022/04/17 04:20:46;;;;;;;;;;;8.30;62.60;;;;;;5036019;28;19913;-89
2022/04/17 04:23:12;;;;;;;;;;;8.30;61.60;;;;;;5036003;28;19909;-88
2022/04/17 04:25:38;;;;;;;;;;;8.20;61.90;;;;;;5035999;28;19909;-89
2022/04/17 04:30:47;;;;;;;;;;;8.20;64.10;;;;;;5035856;28;19916;-88
2022/04/17 04:33:13;;;;;;;;;;;8.20;63.90;;;;;;5035813;28;19909;-88
2022/04/17 04:35:39;;;;;;;;;;;8.10;64.10;;;;;;5035425;28;20295;-88
2022/04/17 04:38:05;;;;;;;;;;;7.90;63.70;;;;;;5035723;28;19975;-88
2022/04/17 04:40:31;;;;;;;;;;;7.50;64.10;;;;;;5035757;28;19910;-88
2022/04/17 04:42:57;;;;;;;;;;;7.50;64.80;;;;;;5035700;28;20428;-88
2022/04/17 04:48:07;;;;;;;;;;;7.60;65.00;;;;;;5029343;28;19995;-88
2022/04/17 04:50:32;;;;;;;;;;;7.60;64.90;;;;;;5015768;28;20399;-88
2022/04/17 04:52:58;;;;;;;;;;;7.60;65.10;;;;;;5015732;28;19975;-88
2022/04/17 04:55:23;;;;;;;;;;;7.60;64.30;;;;;;5015610;28;19949;-88
2022/04/17 04:57:49;;;;;;;;;;;7.60;63.00;;;;;;5014416;28;19996;-88
2022/04/17 05:00:14;;;;;;;;;;;7.70;62.00;;;;;;5015617;28;19916;-88
2022/04/17 05:02:41;;;;;;;;;;;7.80;59.90;;;;;;5015498;28;19913;-88
2022/04/17 05:05:07;;;;;;;;;;;7.90;59.40;;;;;;5015482;28;19964;-88
2022/04/17 05:07:32;;;;;;;;;;;8.00;58.80;;;;;;5015227;28;19917;-88
2022/04/17 05:09:58;;;;;;;;;;;8.10;58.60;;;;;;5015264;28;19993;-88
2022/04/17 05:12:23;;;;;;;;;;;8.20;58.40;;;;;;5015322;28;19913;-88
2022/04/17 05:14:49;;;;;;;;;;;8.30;58.20;;;;;;5015322;28;19964;-88
2022/04/17 05:17:14;;;;;;;;;;;8.30;57.70;;;;;;5015302;28;19917;-88
2022/04/17 05:19:40;;;;;;;;;;;8.40;57.80;;;;;;5033933;28;19910;-88
2022/04/17 05:22:10;;;;;;;;;;;8.40;57.90;;;;;;5034928;28;20432;-88
2022/04/17 05:24:36;;;;;;;;;;;8.50;58.00;;;;;;5034944;28;19915;-88
2022/04/17 05:27:02;;;;;;;;;;;8.60;57.80;;;;;;5034853;28;19913;-88
2022/04/17 05:29:27;;;;;;;;;;;8.60;58.00;;;;;;5034989;28;19939;-88
2022/04/17 05:31:53;;;;;;;;;;;8.80;58.50;;;;;;5034649;28;20455;-88
2022/04/17 05:34:18;;;;;;;;;;;8.90;58.40;;;;;;5034945;28;20294;-88
2022/04/17 05:36:44;;;;;;;;;;;9.00;58.50;;;;;;5034688;28;20274;-88
2022/04/17 05:39:10;;;;;;;;;;;9.10;57.80;;;;;;5034602;28;20268;-87
2022/04/17 05:41:36;;;;;;;;;;;9.20;58.00;;;;;;5033348;28;20396;-88
2022/04/17 05:44:02;;;;;;;;;;;9.10;58.00;;;;;;5034531;28;19923;-88
2022/04/17 05:46:29;;;;;;;;;;;9.20;58.10;;;;;;5034457;28;20004;-88
2022/04/17 05:48:57;;;;;;;;;;;9.20;58.10;;;;;;5018179;28;19940;-88
2022/04/17 05:51:23;;;;;;;;;;;9.20;57.80;;;;;;5014589;28;19960;-88
2022/04/17 05:53:48;;;;;;;;;;;9.30;58.10;;;;;;5013325;28;19917;-88
2022/04/17 05:56:14;;;;;;;;;;;9.30;58.10;;;;;;5014556;28;20440;-88
2022/04/17 05:58:39;;;;;;;;;;;9.30;57.60;;;;;;5014469;28;20375;-88
2022/04/17 06:01:05;;;;;;;;;;;9.30;57.30;;;;;;5014473;28;19910;-88
2022/04/17 06:03:30;;;;;;;;;;;9.40;56.20;;;;;;5014690;28;19909;-88
2022/04/17 06:05:56;;;;;;;;;;;9.40;56.20;;;;;;5014458;28;19914;-88
2022/04/17 06:08:22;;;;;;;;;;;9.50;55.80;;;;;;5014021;28;19984;-88
2022/04/17 06:10:48;;;;;;;;;;;9.60;55.60;;;;;;5014320;28;19952;-88
2022/04/17 06:13:13;;;;;;;;;;;9.70;54.00;;;;;;5014243;28;19956;-88
2022/04/17 06:15:40;;;;;;;;;;;9.70;53.70;;;;;;5014238;28;19913;-88
2022/04/17 06:18:06;;;;;;;;;;;9.90;52.90;;;;;;5021811;28;20378;-88
2022/04/17 06:20:31;;;;;;;;;;;9.90;52.00;;;;;;5033897;28;19924;-88
2022/04/17 06:22:57;;;;;;;;;;;9.90;50.80;;;;;;5033831;28;20264;-88
2022/04/17 06:25:22;;;;;;;;;;;10.00;51.20;;;;;;5033255;28;20047;-88
2022/04/17 06:27:48;;;;;;;;;;;10.10;48.10;;;;;;5032479;28;20359;-88
2022/04/17 06:30:14;;;;;;;;;;;10.10;49.20;;;;;;5032380;28;19909;-88
2022/04/17 06:32:40;;;;;;;;;;;10.20;50.00;;;;;;5033539;28;19915;-88
2022/04/17 06:35:06;;;;;;;;;;;10.30;50.50;;;;;;5033598;28;20417;-88
2022/04/17 06:37:44;;;;;;;;;;;10.30;50.50;;;;;;5033265;28;19931;-88
2022/04/17 06:40:09;;;;;;;;;;;10.40;50.10;;;;;;5033578;28;19936;-88
2022/04/17 06:42:35;;;;;;;;;;;10.40;49.40;;;;;;5033484;28;20006;-88
2022/04/17 06:45:00;;;;;;;;;;;10.40;50.20;;;;;;5033484;28;19909;-88
2022/04/17 06:47:26;;;;;;;;;;;10.50;50.70;;;;;;5019564;28;19918;-89
2022/04/17 06:49:51;;;;;;;;;;;10.40;51.40;;;;;;5013630;28;19964;-88
2022/04/17 06:52:17;;;;;;;;;;;10.50;49.20;;;;;;5013622;28;19944;-88
2022/04/17 06:54:42;;;;;;;;;;;10.60;49.30;;;;;;5020780;28;20391;-88
2022/04/17 06:57:08;;;;;;;;;;;10.60;48.50;;;;;;5033322;28;19909;-88
2022/04/17 06:59:33;;;;;;;;;;;10.60;48.70;;;;;;5033186;28;20330;-88
2022/04/17 07:01:59;;;;;;;;;;;10.60;48.70;;;;;;5033222;28;20253;-89
2022/04/17 07:04:24;;;;;;;;;;;10.70;47.20;;;;;;5028886;28;19914;-88
2022/04/17 07:06:50;;;;;;;;;;;10.70;47.30;;;;;;5022304;23;19956;-88
2022/04/17 07:09:17;;;;;;;;;;;10.80;47.10;;;;;;5051451;28;20435;-88
2022/04/17 07:11:43;;;;;;;;;;;10.80;46.10;;;;;;5053073;28;20375;-88
2022/04/17 07:14:12;;;;;;;;;;;10.90;46.90;;;;;;5052843;28;20381;-88
2022/04/17 07:16:37;;;;;;;;;;;11.00;47.30;;;;;;5052983;28;19909;-88
2022/04/17 07:19:03;;;;;;;;;;;11.10;48.40;;;;;;5052944;28;20286;-89
2022/04/17 07:21:28;;;;;;;;;;;11.10;45.00;;;;;;5052961;28;19909;-88
2022/04/17 07:23:54;;;;;;;;;;;11.20;45.60;;;;;;5052954;28;19909;-88
2022/04/17 07:26:19;;;;;;;;;;;11.20;46.00;;;;;;5053231;28;19908;-88
2022/04/17 07:28:46;;;;;;;;;;;11.20;46.10;;;;;;5052778;28;19921;-89
2022/04/17 07:31:11;;;;;;;;;;;11.30;45.00;;;;;;5052815;28;20355;-89
2022/04/17 07:33:37;;;;;;;;;;;11.30;45.70;;;;;;5053067;28;19908;-89
2022/04/17 07:36:03;;;;;;;;;;;11.40;47.10;;;;;;5052618;28;20337;-88
2022/04/17 07:38:28;;;;;;;;;;;11.50;47.20;;;;;;5052629;28;20363;-89
2022/04/17 07:40:54;;;;;;;;;;;11.50;44.30;;;;;;5051486;28;20332;-89
2022/04/17 07:43:19;;;;;;;;;;;11.50;45.50;;;;;;5052715;28;20432;-89
2022/04/17 07:45:45;;;;;;;;;;;11.60;46.30;;;;;;5052418;28;20270;-88
2022/04/17 07:48:11;;;;;;;;;;;11.70;46.40;;;;;;5052622;28;19916;-89
2022/04/17 07:50:36;;;;;;;;;;;11.80;45.60;;;;;;5052720;28;19913;-89
2022/04/17 07:53:02;;;;;;;;;;;11.80;44.70;;;;;;5052713;28;20401;-89
2022/04/17 07:55:28;;;;;;;;;;;11.80;44.20;;;;;;5052370;28;19909;-88
2022/04/17 07:58:16;;;;;;;;;;;11.90;45.40;;;;;;5052816;28;19935;-89
2022/04/17 08:01:03;;;;;;;;;;;11.90;46.10;;;;;;5052653;28;19909;-88
2022/04/17 08:05:57;;;;;;;;;;;12.00;42.30;;;;;;5052579;28;19916;-89
2022/04/17 08:08:23;;;;;;;;;;;12.10;43.00;;;;;;5052192;28;19921;-89
2022/04/17 08:10:48;;;;;;;;;;;12.10;44.40;;;;;;5052681;28;19909;-89
2022/04/17 08:13:14;;;;;;;;;;;12.20;44.70;;;;;;5055973;28;19915;-89
2022/04/17 08:15:40;;;;;;;;;;;12.20;44.20;;;;;;5055990;28;19916;-89
2022/04/17 08:18:05;;;;;;;;;;;12.20;43.60;;;;;;5056126;28;20369;-89
2022/04/17 08:20:31;;;;;;;;;;;12.30;43.70;;;;;;5056364;28;19913;-89
2022/04/17 08:22:57;;;;;;;;;;;12.40;43.80;;;;;;5055947;28;20409;-88
2022/04/17 08:25:22;;;;;;;;;;;12.40;43.90;;;;;;5055755;28;19909;-89
2022/04/17 08:27:51;;;;;;;;;;;12.40;42.00;;;;;;5055858;28;19913;-89
2022/04/17 08:30:24;;;;;;;;;;;12.40;42.50;;;;;;5055857;28;20007;-89
2022/04/17 08:32:50;;;;;;;;;;;12.40;43.60;;;;;;5055114;28;19909;-89
2022/04/17 08:35:16;;;;;;;;;;;12.60;43.40;;;;;;5055538;28;20275;-89
2022/04/17 08:37:43;;;;;;;;;;;12.60;39.30;;;;;;5054421;28;19955;-89
2022/04/17 08:40:09;;;;;;;;;;;12.60;40.20;;;;;;5055721;28;19968;-89
2022/04/17 08:42:36;;;;;;;;;;;12.60;40.70;;;;;;5055628;28;19909;-89
2022/04/17 08:45:02;;;;;;;;;;;12.70;38.40;;;;;;5055312;28;20007;-88
2022/04/17 08:47:28;;;;;;;;;;;12.70;39.40;;;;;;5055228;28;20312;-89
2022/04/17 08:49:54;;;;;;;;;;;12.70;41.40;;;;;;5055238;28;20007;-89
2022/04/17 08:52:21;;;;;;;;;;;12.80;39.80;;;;;;5055341;28;19996;-89
2022/04/17 08:54:46;;;;;;;;;;;12.80;38.40;;;;;;5055426;28;19916;-89
2022/04/17 08:57:12;;;;;;;;;;;12.90;42.10;;;;;;5055419;28;19963;-89
2022/04/17 08:59:38;;;;;;;;;;;12.90;43.40;;;;;;5055609;28;19908;-88
2022/04/17 09:02:10;;;;;;;;;;;13.00;42.00;;;;;;5055301;28;19913;-89
2022/04/17 09:04:37;;;;;;;;;;;13.10;39.50;;;;;;5053683;28;19920;-89
2022/04/17 09:07:05;;;;;;;;;;;13.00;38.70;;;;;;5055067;28;19916;-89
2022/04/17 09:09:31;;;;;;;;;;;13.00;43.30;;;;;;5054983;28;19920;-89
2022/04/17 09:11:56;;;;;;;;;;;13.10;43.10;;;;;;5055126;28;19912;-89
2022/04/17 09:14:22;;;;;;;;;;;13.20;42.00;;;;;;5054872;28;20007;-89
2022/04/17 09:16:51;;;;;;;;;;;13.30;46.10;;;;;;5055266;28;20003;-89
2022/04/17 09:19:18;;;;;;;;;;;13.40;44.80;;;;;;5054996;28;20100;-89
2022/04/17 09:21:43;;;;;;;;;;;13.40;46.50;;;;;;5054692;28;19916;-89
2022/04/17 09:24:12;;;;;;;;;;;13.40;45.60;;;;;;5054890;28;19909;-89
2022/04/17 09:26:46;;;;;;;;;;;13.30;40.50;;;;;;5054762;28;19913;-89
2022/04/17 09:29:23;;;;;;;;;;;13.40;45.40;;;;;;5054688;28;19948;-88
2022/04/17 09:32:17;;;;;;;;;;;13.50;47.80;;;;;;5054633;28;19975;-89
2022/04/17 09:34:58;;;;;;;;;;;13.50;44.80;;;;;;5052811;28;20019;-88
2022/04/17 09:37:25;;;;;;;;;;;13.60;41.40;;;;;;5054640;28;19916;-89
2022/04/17 09:39:52;;;;;;;;;;;13.60;40.60;;;;;;5054657;28;20374;-89
2022/04/17 09:42:24;;;;;;;;;;;13.70;42.80;;;;;;5054832;28;19916;-89
2022/04/17 09:44:51;;;;;;;;;;;13.80;46.30;;;;;;5054342;28;19917;-89
2022/04/17 09:47:22;;;;;;;;;;;13.90;43.90;;;;;;5054450;28;19919;-89
2022/04/17 09:49:54;;;;;;;;;;;14.00;43.80;;;;;;5054360;28;20003;-89
2022/04/17 09:52:20;;;;;;;;;;;14.10;44.20;;;;;;5054620;28;19915;-89
2022/04/17 09:54:47;;;;;;;;;;;14.20;44.00;;;;;;5053987;28;19913;-89
2022/04/17 09:57:17;;;;;;;;;;;14.20;41.10;;;;;;5054295;28;19909;-89
2022/04/17 09:59:43;;;;;;;;;;;14.30;42.10;;;;;;5054286;28;19935;-89
2022/04/17 10:02:12;;;;;;;;;;;14.30;39.40;;;;;;5054144;28;20418;-88
2022/04/17 10:04:39;;;;;;;;;;;14.30;43.00;;;;;;5053964;28;19916;-88
2022/04/17 10:07:04;;;;;;;;;;;14.40;44.30;;;;;;5053921;28;19909;-89
2022/04/17 10:09:31;;;;;;;;;;;14.50;42.90;;;;;;5053908;28;20305;-88
2022/04/17 10:11:59;;;;;;;;;;;14.60;43.00;;;;;;5054033;28;20084;-89
2022/04/17 10:14:27;;;;;;;;;;;14.70;40.50;;;;;;5053943;28;19940;-89
2022/04/17 10:16:54;;;;;;;;;;;14.80;35.40;;;;;;5053798;28;20404;-88
2022/04/17 10:19:19;;;;;;;;;;;14.60;34.70;;;;;;5053868;28;19916;-89
2022/04/17 10:21:45;;;;;;;;;;;14.60;39.80;;;;;;5053862;28;19909;-89
2022/04/17 10:24:18;;;;;;;;;;;14.70;40.60;;;;;;5053729;28;19958;-88
2022/04/17 10:26:48;;;;;;;;;;;14.80;40.90;;;;;;5053593;28;19913;-88
2022/04/17 10:29:22;;;;;;;;;;;14.90;41.00;;;;;;5053599;28;19956;-89
2022/04/17 10:32:06;;;;;;;;;;;14.80;38.20;;;;;;5053567;28;19909;-89
2022/04/17 10:34:34;;;;;;;;;;;14.90;34.70;;;;;;5053101;28;19958;-88
2022/04/17 10:37:23;;;;;;;;;;;14.70;36.10;;;;;;5033619;28;19910;-88
2022/04/17 10:39:50;;;;;;;;;;;14.60;38.40;;;;;;5005233;28;19909;-88
2022/04/17 10:42:16;;;;;;;;;;;14.70;40.20;;;;;;5033549;28;19933;-89
2022/04/17 10:44:41;;;;;;;;;;;14.90;37.20;;;;;;5034916;28;20424;-88
2022/04/17 10:47:17;;;;;;;;;;;15.10;35.40;;;;;;5053311;28;19919;-88
2022/04/17 10:49:53;;;;;;;;;;;15.10;35.00;;;;;;5053332;28;20003;-89
2022/04/17 10:52:29;;;;;;;;;;;15.00;34.20;;;;;;5053254;28;19909;-89
2022/04/17 10:54:55;;;;;;;;;;;15.10;36.80;;;;;;5053011;28;20039;-89
2022/04/17 10:57:26;;;;;;;;;;;15.30;38.00;;;;;;5051949;28;19908;-89
2022/04/17 11:00:10;;;;;;;;;;;15.40;31.80;;;;;;5053222;28;19909;-89
2022/04/17 11:02:36;;;;;;;;;;;15.50;32.20;;;;;;5053199;28;19909;-89
2022/04/17 11:05:02;;;;;;;;;;;15.50;33.00;;;;;;5052923;28;19913;-89
2022/04/17 11:07:29;;;;;;;;;;;15.60;34.70;;;;;;5052948;28;19925;-89
2022/04/17 11:10:05;;;;;;;;;;;15.70;34.90;;;;;;5052951;28;19967;-89
2022/04/17 11:12:31;;;;;;;;;;;16.00;35.00;;;;;;5052916;28;20320;-89
2022/04/17 11:15:02;;;;;;;;;;;16.30;36.00;;;;;;5052805;28;19917;-89
2022/04/17 11:17:29;;;;;;;;;;;16.50;36.60;;;;;;5052986;28;19952;-89
2022/04/17 11:19:55;;;;;;;;;;;16.80;33.70;;;;;;5052964;28;19976;-89
2022/04/17 11:22:25;;;;;;;;;;;16.80;33.60;;;;;;5052950;28;19909;-89
2022/04/17 11:25:06;;;;;;;;;;;16.90;33.30;;;;;;5052764;28;19909;-89
2022/04/17 11:27:31;;;;;;;;;;;17.10;33.80;;;;;;5053125;28;19909;-89
2022/04/17 11:29:58;;;;;;;;;;;17.00;32.80;;;;;;5052817;28;19917;-89
2022/04/17 11:32:25;;;;;;;;;;;17.00;34.40;;;;;;5052799;28;20362;-89
2022/04/17 11:34:54;;;;;;;;;;;16.80;32.80;;;;;;5052586;28;19916;-89
2022/04/17 11:37:20;;;;;;;;;;;16.80;35.30;;;;;;5052767;28;19908;-89
2022/04/17 11:39:46;;;;;;;;;;;17.10;35.70;;;;;;5052835;28;19966;-89
2022/04/17 11:42:12;;;;;;;;;;;17.40;30.90;;;;;;5052732;28;19956;-89
2022/04/17 11:44:41;;;;;;;;;;;17.50;29.70;;;;;;5052746;28;19945;-89
2022/04/17 11:47:10;;;;;;;;;;;17.80;34.70;;;;;;5056182;28;19913;-89
2022/04/17 11:49:42;;;;;;;;;;;18.10;35.70;;;;;;5056652;28;19962;-89
2022/04/17 11:52:11;;;;;;;;;;;18.30;31.80;;;;;;5056629;28;19909;-89
2022/04/17 11:54:37;;;;;;;;;;;18.40;31.70;;;;;;5056635;28;19909;-90
2022/04/17 11:57:02;;;;;;;;;;;18.60;33.60;;;;;;5056345;28;19916;-89
2022/04/17 11:59:28;;;;;;;;;;;18.80;33.20;;;;;;5056524;28;20003;-89
2022/04/17 12:02:06;;;;;;;;;;;18.80;30.50;;;;;;5056478;28;19963;-89
2022/04/17 12:04:36;;;;;;;;;;;18.80;31.20;;;;;;5056415;28;19932;-89
2022/04/17 12:07:01;;;;;;;;;;;18.10;30.60;;;;;;5055874;28;19913;-89
2022/04/17 12:09:27;;;;;;;;;;;18.30;32.60;;;;;;5056211;28;20274;-89
2022/04/17 12:11:53;;;;;;;;;;;18.60;32.30;;;;;;5056285;28;20333;-89
2022/04/17 12:14:28;;;;;;;;;;;19.20;32.70;;;;;;5055900;28;20259;-89
2022/04/17 12:16:54;;;;;;;;;;;19.80;30.10;;;;;;5055949;28;19913;-89
2022/04/17 12:19:19;;;;;;;;;;;20.30;29.40;;;;;;5056052;28;19909;-89
2022/04/17 12:21:45;;;;;;;;;;;20.40;31.20;;;;;;5056053;28;19913;-89
2022/04/17 12:24:10;;;;;;;;;;;20.90;29.80;;;;;;5055554;28;19955;-90
2022/04/17 12:26:36;;;;;;;;;;;21.20;30.10;;;;;;5055965;28;19952;-89
2022/04/17 12:29:03;;;;;;;;;;;21.50;29.70;;;;;;5055899;28;19956;-90
2022/04/17 12:31:29;;;;;;;;;;;22.00;27.70;;;;;;5055552;28;19919;-90
2022/04/17 12:34:08;;;;;;;;;;;22.50;25.10;;;;;;5055830;28;19908;-90
2022/04/17 12:36:34;;;;;;;;;;;22.80;25.80;;;;;;5055751;28;19908;-90
2022/04/17 12:39:02;;;;;;;;;;;22.80;26.50;;;;;;5055761;28;19963;-90
2022/04/17 12:41:30;;;;;;;;;;;22.30;26.70;;;;;;5055418;28;20367;-90
2022/04/17 12:43:55;;;;;;;;;;;23.30;24.10;;;;;;5055676;28;19909;-90
2022/04/17 12:46:28;;;;;;;;;;;24.30;22.50;;;;;;5055623;28;19909;-90
2022/04/17 12:49:03;;;;;;;;;;;25.40;22.10;;;;;;5055747;28;19998;-90
2022/04/17 12:51:29;;;;;;;;;;;26.20;20.70;;;;;;5055098;28;19920;-90
2022/04/17 12:53:54;;;;;;;;;;;26.10;21.70;;;;;;5055322;28;19909;-90
2022/04/17 12:56:24;;;;;;;;;;;26.50;21.20;;;;;;5055262;28;19999;-90
2022/04/17 12:58:56;;;;;;;;;;;26.30;21.20;;;;;;5054896;28;19909;-90
2022/04/17 13:01:23;;;;;;;;;;;25.30;22.40;;;;;;5055016;28;19919;-90
2022/04/17 13:03:49;;;;;;;;;;;24.80;24.10;;;;;;5055297;28;19909;-90
2022/04/17 13:06:19;;;;;;;;;;;25.50;23.40;;;;;;5055241;28;20000;-90
2022/04/17 13:09:00;;;;;;;;;;;25.00;23.10;;;;;;5054916;28;19928;-90
2022/04/17 13:11:29;;;;;;;;;;;24.90;24.90;;;;;;5054950;28;20393;-90
2022/04/17 13:13:59;;;;;;;;;;;25.30;24.90;;;;;;5055105;28;19909;-90
2022/04/17 13:16:24;;;;;;;;;;;25.60;23.30;;;;;;5055086;28;19909;-90
2022/04/17 13:18:53;;;;;;;;;;;25.80;24.50;;;;;;5054971;28;19913;-90
2022/04/17 13:21:18;;;;;;;;;;;25.80;23.80;;;;;;5054772;28;20325;-90
2022/04/17 13:23:45;;;;;;;;;;;24.90;24.20;;;;;;5054984;28;19963;-90
2022/04/17 13:26:12;;;;;;;;;;;24.80;25.00;;;;;;5054857;28;19908;-90
2022/04/17 13:28:38;;;;;;;;;;;24.90;24.70;;;;;;5054806;28;19967;-90
2022/04/17 13:31:05;;;;;;;;;;;24.50;24.90;;;;;;5054654;28;19913;-90
2022/04/17 13:33:31;;;;;;;;;;;24.40;25.10;;;;;;5054676;28;19995;-90
2022/04/17 13:35:56;;;;;;;;;;;24.50;23.50;;;;;;5054524;28;19916;-89
2022/04/17 13:38:22;;;;;;;;;;;24.40;26.40;;;;;;5054639;28;20009;-90
2022/04/17 13:40:48;;;;;;;;;;;24.10;24.90;;;;;;5054437;28;20370;-90
2022/04/17 13:43:13;;;;;;;;;;;24.30;23.50;;;;;;5054576;28;19909;-90
2022/04/17 13:45:39;;;;;;;;;;;24.50;23.10;;;;;;5054532;28;19909;-90
2022/04/17 13:48:06;;;;;;;;;;;24.30;22.30;;;;;;5054409;28;19908;-90
2022/04/17 13:50:31;;;;;;;;;;;24.40;24.20;;;;;;5054734;28;19909;-89
2022/04/17 13:52:57;;;;;;;;;;;24.30;24.90;;;;;;5054122;28;19923;-89
2022/04/17 13:55:23;;;;;;;;;;;23.70;25.70;;;;;;5053057;28;19909;-89
2022/04/17 13:57:51;;;;;;;;;;;22.60;24.90;;;;;;5054275;28;20281;-89
2022/04/17 14:00:16;;;;;;;;;;;22.40;26.00;;;;;;5054222;28;19944;-90
2022/04/17 14:02:42;;;;;;;;;;;23.50;25.60;;;;;;5053788;28;19963;-90
2022/04/17 14:05:08;;;;;;;;;;;24.00;24.40;;;;;;5054066;28;20007;-90
2022/04/17 14:07:35;;;;;;;;;;;25.10;22.20;;;;;;5053973;28;19921;-90
2022/04/17 14:10:01;;;;;;;;;;;26.00;21.60;;;;;;5052984;28;19920;-90
2022/04/17 14:12:27;;;;;;;;;;;24.60;23.50;;;;;;5053812;28;19917;-90
2022/04/17 14:14:55;;;;;;;;;;;23.80;24.70;;;;;;5053925;28;19908;-90
2022/04/17 14:17:21;;;;;;;;;;;23.70;24.80;;;;;;5053936;28;19916;-90
2022/04/17 14:19:46;;;;;;;;;;;24.10;24.60;;;;;;5053862;28;19909;-90
2022/04/17 14:22:12;;;;;;;;;;;24.60;23.10;;;;;;5053823;28;19913;-90
2022/04/17 14:24:37;;;;;;;;;;;25.80;23.60;;;;;;5053770;28;20017;-90
2022/04/17 14:27:03;;;;;;;;;;;26.30;21.00;;;;;;5053157;28;19923;-90
2022/04/17 14:29:28;;;;;;;;;;;25.70;21.00;;;;;;5053612;28;19912;-90
2022/04/17 14:31:54;;;;;;;;;;;25.20;22.10;;;;;;5053547;28;19958;-90
2022/04/17 14:34:19;;;;;;;;;;;24.70;23.50;;;;;;5053600;28;20007;-89
2022/04/17 14:36:45;;;;;;;;;;;24.60;23.60;;;;;;5053546;28;19935;-90